createdAt,value
2022-08-17T00:00:34.973Z,78.98
2022-08-17T00:05:46.563Z,78.98
2022-08-17T00:10:49.827Z,80.78
2022-08-17T00:15:54.434Z,80.11
2022-08-17T00:20:57.894Z,80.73
2022-08-17T00:25:59.355Z,82.14
2022-08-17T00:31:01.105Z,82.26
2022-08-17T00:36:04.603Z,81.86
2022-08-17T00:41:13.169Z,83.08
2022-08-17T00:46:19.590Z,83.00
2022-08-17T00:51:45.962Z,82.66
2022-08-17T00:56:50.762Z,83.34
2022-08-17T01:01:52.705Z,84.16
2022-08-17T01:06:56.676Z,84.72
2022-08-17T01:11:58.573Z,84.51
2022-08-17T01:17:00.054Z,84.83
2022-08-17T01:22:06.442Z,85.18
2022-08-17T01:27:10.520Z,85.87
2022-08-17T01:32:13.017Z,86.44
2022-08-17T01:37:14.990Z,85.13
2022-08-17T01:42:26.609Z,86.50
2022-08-17T01:47:28.194Z,86.59
2022-08-17T01:52:32.698Z,87.68
2022-08-17T01:57:34.270Z,86.33
2022-08-17T02:02:35.806Z,86.94
2022-08-17T02:08:00.050Z,87.06
2022-08-17T02:12:59.425Z,88.17
2022-08-17T02:18:02.261Z,87.71
2022-08-17T02:23:04.778Z,88.49
2022-08-17T02:28:09.293Z,88.49
2022-08-17T02:33:10.805Z,89.18
2022-08-17T02:38:12.574Z,89.74
2022-08-17T02:43:14.093Z,90.37
2022-08-17T02:48:15.776Z,90.88
2022-08-17T02:53:35.882Z,89.73
2022-08-17T02:58:37.974Z,90.32
2022-08-17T03:03:40.026Z,90.45
2022-08-17T03:08:41.532Z,91.67
2022-08-17T03:13:43.018Z,91.83
2022-08-17T03:18:44.459Z,93.43
2022-08-17T03:23:45.921Z,93.02
2022-08-17T03:28:47.355Z,92.37
2022-08-17T03:33:48.860Z,93.59
2022-08-17T03:38:50.378Z,91.74
2022-08-17T03:43:52.640Z,93.77
2022-08-17T03:48:54.599Z,93.57
2022-08-17T03:53:58.671Z,93.43
2022-08-17T03:59:00.152Z,93.33
2022-08-17T04:04:01.623Z,93.54
2022-08-17T04:09:04.191Z,94.22
2022-08-17T04:14:06.887Z,94.17
2022-08-17T04:19:08.343Z,94.80
2022-08-17T04:24:09.814Z,96.00
2022-08-17T04:29:11.282Z,95.50
2022-08-17T04:34:12.719Z,95.17
2022-08-17T04:39:14.191Z,95.18
2022-08-17T04:44:15.635Z,95.58
2022-08-17T04:49:37.063Z,94.63
2022-08-17T04:54:38.523Z,94.69
2022-08-17T04:59:39.987Z,93.77
2022-08-17T05:04:41.552Z,93.81
2022-08-17T05:09:43.008Z,93.89
2022-08-17T05:14:44.483Z,93.59
2022-08-17T05:19:51.394Z,94.31
2022-08-17T05:24:55.657Z,94.88
2022-08-17T05:29:57.233Z,94.50
2022-08-17T05:34:58.744Z,94.75
2022-08-17T05:40:00.362Z,94.68
2022-08-17T05:45:02.060Z,93.88
2022-08-17T05:50:09.608Z,93.30
2022-08-17T05:55:26.880Z,92.95
2022-08-17T06:00:42.014Z,86.59
2022-08-17T06:05:58.702Z,88.39
2022-08-17T06:11:22.838Z,85.11
2022-08-17T06:16:34.435Z,83.25
2022-08-17T06:21:41.350Z,85.09
2022-08-17T06:26:44.508Z,84.61
2022-08-17T06:31:46.233Z,83.49
2022-08-17T06:37:00.953Z,83.50
2022-08-17T06:42:59.920Z,84.50
2022-08-17T06:47:52.256Z,84.77
2022-08-17T06:53:04.088Z,84.95
2022-08-17T06:58:15.813Z,86.40
2022-08-17T07:03:39.885Z,87.67
2022-08-17T07:09:01.399Z,89.30
2022-08-17T07:14:38.096Z,90.59
2022-08-17T07:19:42.248Z,90.72
2022-08-17T07:24:48.882Z,89.71
2022-08-17T07:30:20.817Z,89.32
2022-08-17T07:35:40.653Z,88.42
2022-08-17T07:40:54.561Z,89.03
2022-08-17T07:46:02.420Z,88.48
2022-08-17T07:51:19.177Z,87.04
2022-08-17T07:56:56.010Z,82.68
2022-08-17T08:01:57.838Z,83.32
2022-08-17T08:07:01.849Z,82.54
2022-08-17T08:12:23.939Z,78.77
2022-08-17T08:17:34.760Z,77.38
2022-08-17T08:23:02.943Z,74.08
2022-08-17T08:28:25.703Z,73.79
2022-08-17T08:33:34.728Z,73.20
2022-08-17T08:38:48.872Z,75.53
2022-08-17T08:44:13.756Z,75.47
2022-08-17T08:49:29.826Z,76.18
2022-08-17T08:54:56.604Z,76.84
2022-08-17T09:00:20.075Z,75.24
2022-08-17T09:05:44.090Z,73.22
2022-08-17T09:11:09.181Z,71.04
2022-08-17T09:16:30.547Z,69.16
2022-08-17T09:21:53.762Z,69.72
2022-08-17T09:27:04.971Z,66.38
2022-08-17T09:32:36.722Z,64.79
2022-08-17T09:37:53.216Z,65.50
2022-08-17T09:43:03.990Z,66.62
2022-08-17T09:48:18.765Z,66.18
2022-08-17T09:53:20.246Z,66.66
2022-08-17T09:58:44.560Z,66.38
2022-08-17T10:03:51.869Z,65.00
2022-08-17T10:09:08.602Z,64.93
2022-08-17T10:14:37.412Z,66.59
2022-08-17T10:20:20.208Z,65.11
2022-08-17T10:25:30.088Z,65.58
2022-08-17T10:30:49.164Z,65.83
2022-08-17T10:36:06.363Z,65.04
2022-08-17T10:41:22.038Z,63.44
2022-08-17T10:46:31.198Z,61.94
2022-08-17T10:51:37.462Z,61.51
2022-08-17T10:56:45.392Z,58.16
2022-08-17T11:02:02.456Z,56.22
2022-08-17T11:07:34.383Z,56.58
2022-08-17T11:12:59.786Z,56.55
2022-08-17T11:18:18.840Z,57.17
2022-08-17T11:23:52.140Z,57.11
2022-08-17T11:28:58.938Z,57.45
2022-08-17T11:34:03.026Z,57.09
2022-08-17T11:39:33.940Z,57.58
2022-08-17T11:44:52.382Z,55.53
2022-08-17T11:50:16.121Z,55.17
2022-08-17T11:55:35.812Z,55.38
2022-08-17T12:00:45.957Z,55.84
2022-08-17T12:05:48.121Z,55.28
2022-08-17T12:10:56.510Z,55.72
2022-08-17T12:15:58.653Z,56.12
2022-08-17T12:21:13.858Z,54.64
2022-08-17T12:26:19.190Z,53.99
2022-08-17T12:31:25.978Z,53.61
2022-08-17T12:36:28.871Z,52.97
2022-08-17T12:41:31.905Z,53.98
2022-08-17T12:46:46.370Z,54.20
2022-08-17T12:51:48.449Z,53.88
2022-08-17T12:56:49.950Z,54.67
2022-08-17T13:01:51.540Z,53.85
2022-08-17T13:06:59.640Z,54.55
2022-08-17T13:12:01.777Z,55.31
2022-08-17T13:17:05.424Z,53.93
2022-08-17T13:22:11.822Z,53.46
2022-08-17T13:27:13.581Z,52.95
2022-08-17T13:32:19.891Z,52.89
2022-08-17T13:37:24.258Z,54.45
2022-08-17T13:42:51.741Z,52.78
2022-08-17T13:48:16.763Z,53.35
2022-08-17T13:53:46.854Z,52.90
2022-08-17T13:58:57.062Z,52.79
2022-08-17T14:04:01.185Z,51.99
2022-08-17T14:09:03.664Z,50.45
2022-08-17T14:14:05.174Z,50.71
2022-08-17T14:19:06.623Z,50.32
2022-08-17T14:24:11.073Z,50.63
2022-08-17T14:29:14.891Z,47.25
2022-08-17T14:34:17.214Z,47.08
2022-08-17T14:39:20.258Z,47.46
2022-08-17T14:44:21.698Z,45.62
2022-08-17T14:49:23.130Z,46.36
2022-08-17T14:54:33.026Z,46.94
2022-08-17T14:59:36.062Z,46.61
2022-08-17T15:04:39.850Z,47.98
2022-08-17T15:09:44.908Z,47.11
2022-08-17T15:14:46.393Z,45.62
2022-08-17T15:19:47.867Z,45.78
2022-08-17T15:24:49.538Z,46.48
2022-08-17T15:29:51.037Z,45.85
2022-08-17T15:34:55.201Z,46.54
2022-08-17T15:39:56.742Z,47.86
2022-08-17T15:44:58.302Z,46.70
2022-08-17T15:50:00.401Z,46.63
2022-08-17T15:55:02.051Z,46.45
2022-08-17T16:00:06.030Z,47.24
2022-08-17T16:05:13.322Z,45.68
2022-08-17T16:10:19.052Z,46.87
2022-08-17T16:15:20.981Z,48.40
2022-08-17T16:20:22.545Z,47.50
2022-08-17T16:25:47.230Z,47.46
2022-08-17T16:30:49.190Z,48.96
2022-08-17T16:35:50.618Z,50.42
2022-08-17T16:40:52.073Z,50.58
2022-08-17T16:45:53.627Z,51.68
2022-08-17T16:51:03.080Z,50.92
2022-08-17T16:56:05.342Z,51.28
2022-08-17T17:01:06.933Z,53.91
2022-08-17T17:06:14.587Z,55.74
2022-08-17T17:11:24.919Z,56.88
2022-08-17T17:16:35.583Z,58.18
2022-08-17T17:21:56.614Z,59.28
2022-08-17T17:27:12.753Z,60.32
2022-08-17T17:32:24.819Z,61.30
2022-08-17T17:37:32.340Z,61.58
2022-08-17T17:42:34.074Z,61.49
2022-08-17T17:47:36.401Z,61.39
2022-08-17T17:52:46.557Z,62.26
2022-08-17T17:58:11.318Z,62.44
2022-08-17T18:03:20.150Z,62.44
2022-08-17T18:08:43.014Z,62.59
2022-08-17T18:13:56.446Z,63.39
2022-08-17T18:18:58.557Z,62.63
2022-08-17T18:24:02.125Z,62.95
2022-08-17T18:29:23.401Z,62.62
2022-08-17T18:34:46.446Z,64.38
2022-08-17T18:39:49.013Z,64.15
2022-08-17T18:44:54.854Z,65.78
2022-08-17T18:50:18.703Z,66.30
2022-08-17T18:55:25.530Z,65.91
2022-08-17T19:00:42.063Z,67.36
2022-08-17T19:05:47.140Z,67.46
2022-08-17T19:10:56.074Z,68.05
2022-08-17T19:16:14.586Z,68.01
2022-08-17T19:21:25.177Z,68.26
2022-08-17T19:26:54.502Z,68.89
2022-08-17T19:31:52.970Z,69.14
2022-08-17T19:37:24.535Z,69.91
2022-08-17T19:42:40.912Z,69.80
2022-08-17T19:48:16.259Z,70.50
2022-08-17T19:53:23.031Z,70.72
2022-08-17T19:58:59.217Z,71.14
2022-08-17T20:04:14.261Z,71.31
2022-08-17T20:09:29.661Z,71.84
2022-08-17T20:14:53.663Z,72.32
2022-08-17T20:20:06.591Z,72.30
2022-08-17T20:25:17.610Z,73.25
2022-08-17T20:30:36.545Z,73.69
2022-08-17T20:35:39.690Z,74.01
2022-08-17T20:40:56.411Z,73.57
2022-08-17T20:46:16.007Z,74.02
2022-08-17T20:51:28.999Z,75.17
2022-08-17T20:56:42.685Z,75.22
2022-08-17T21:02:17.478Z,75.35
2022-08-17T21:07:33.063Z,75.92
2022-08-17T21:12:53.042Z,76.30
2022-08-17T21:18:13.072Z,76.32
2022-08-17T21:23:20.549Z,76.33
2022-08-17T21:28:36.024Z,77.02
2022-08-17T21:34:15.666Z,78.10
2022-08-17T21:39:21.454Z,78.47
2022-08-17T21:44:35.158Z,78.19
2022-08-17T21:49:38.018Z,78.70
2022-08-17T21:54:47.802Z,78.79
2022-08-17T21:59:56.303Z,78.57
2022-08-17T22:05:06.560Z,78.75
2022-08-17T22:10:32.186Z,78.58
2022-08-17T22:15:38.152Z,79.09
2022-08-17T22:20:41.352Z,80.04
2022-08-17T22:26:00.237Z,81.34
2022-08-17T22:31:03.808Z,81.59
2022-08-17T22:36:14.136Z,81.67
2022-08-17T22:41:32.714Z,81.83
2022-08-17T22:46:39.896Z,81.51
2022-08-17T22:51:42.505Z,82.07
2022-08-17T22:56:52.886Z,81.89
2022-08-17T23:02:24.225Z,82.74
2022-08-17T23:07:25.735Z,81.87
2022-08-17T23:12:27.289Z,83.05
2022-08-17T23:17:36.446Z,82.85
2022-08-17T23:22:51.811Z,83.51
2022-08-17T23:27:55.523Z,84.16
2022-08-17T23:33:02.369Z,84.61
2022-08-17T23:38:04.045Z,85.66
2022-08-17T23:49:08.288Z,86.16
2022-08-17T23:54:26.770Z,86.55
2022-08-17T23:59:28.728Z,85.92
